createdAt,value
2022-12-01T00:02:17.688Z,100.00
2022-12-01T00:04:44.129Z,100.00
2022-12-01T00:07:10.865Z,100.00
2022-12-01T00:09:37.221Z,100.00
2022-12-01T00:12:03.734Z,100.00
2022-12-01T00:14:30.063Z,100.00
2022-12-01T00:16:56.422Z,100.00
2022-12-01T00:19:26.376Z,100.00
2022-12-01T00:21:52.738Z,100.00
2022-12-01T00:24:19.117Z,100.00
2022-12-01T00:26:45.496Z,100.00
2022-12-01T00:29:11.863Z,100.00
2022-12-01T00:31:38.298Z,100.00
2022-12-01T00:34:08.214Z,100.00
2022-12-01T00:36:37.538Z,100.00
2022-12-01T00:39:03.881Z,100.00
2022-12-01T00:41:30.220Z,100.00
2022-12-01T00:43:56.572Z,100.00
2022-12-01T00:46:22.984Z,100.00
2022-12-01T00:48:49.368Z,100.00
2022-12-01T00:51:15.725Z,100.00
2022-12-01T00:53:42.032Z,100.00
2022-12-01T00:56:08.346Z,100.00
2022-12-01T00:58:34.687Z,100.00
2022-12-01T01:01:02.231Z,100.00
2022-12-01T01:03:29.985Z,100.00
2022-12-01T01:05:56.439Z,100.00
2022-12-01T01:08:22.807Z,100.00
2022-12-01T01:10:49.398Z,100.00
2022-12-01T01:13:16.525Z,100.00
2022-12-01T01:15:42.878Z,100.00
2022-12-01T01:18:11.305Z,100.00
2022-12-01T01:20:37.655Z,100.00
2022-12-01T01:23:03.961Z,100.00
2022-12-01T01:25:32.413Z,100.00
2022-12-01T01:27:58.717Z,100.00
2022-12-01T01:30:25.147Z,100.00
2022-12-01T01:32:51.489Z,100.00
2022-12-01T01:35:17.881Z,100.00
2022-12-01T01:37:44.206Z,100.00
2022-12-01T01:40:10.952Z,100.00
2022-12-01T01:42:37.298Z,100.00
2022-12-01T01:45:03.961Z,100.00
2022-12-01T01:47:34.636Z,100.00
2022-12-01T01:50:06.776Z,100.00
2022-12-01T01:52:42.918Z,100.00
2022-12-01T01:55:09.606Z,100.00
2022-12-01T01:57:36.258Z,100.00
2022-12-01T02:00:07.697Z,100.00
2022-12-01T02:02:37.398Z,100.00
2022-12-01T02:05:03.898Z,100.00
2022-12-01T02:07:30.592Z,100.00
2022-12-01T02:09:57.602Z,100.00
2022-12-01T02:12:40.262Z,100.00
2022-12-01T02:15:42.239Z,100.00
2022-12-01T02:18:32.492Z,100.00
2022-12-01T02:21:43.192Z,100.00
2022-12-01T02:24:27.452Z,100.00
2022-12-01T02:27:06.906Z,100.00
2022-12-01T02:29:48.550Z,100.00
2022-12-01T02:32:33.537Z,100.00
2022-12-01T02:35:28.605Z,100.00
2022-12-01T02:38:10.007Z,100.00
2022-12-01T02:41:05.303Z,100.00
2022-12-01T02:43:41.929Z,100.00
2022-12-01T02:46:36.706Z,100.00
2022-12-01T02:49:11.281Z,100.00
2022-12-01T02:51:41.103Z,100.00
2022-12-01T02:54:08.350Z,100.00
2022-12-01T02:56:34.698Z,100.00
2022-12-01T02:59:01.003Z,100.00
2022-12-01T03:01:55.306Z,100.00
2022-12-01T03:04:55.932Z,100.00
2022-12-01T03:07:37.398Z,100.00
2022-12-01T03:10:30.150Z,100.00
2022-12-01T03:13:25.640Z,100.00
2022-12-01T03:16:04.607Z,100.00
2022-12-01T03:18:50.666Z,100.00
2022-12-01T03:21:34.731Z,100.00
2022-12-01T03:24:05.517Z,100.00
2022-12-01T03:26:36.156Z,100.00
2022-12-01T03:29:08.096Z,100.00
2022-12-01T03:31:41.496Z,100.00
2022-12-01T03:34:35.497Z,100.00
2022-12-01T03:37:07.008Z,100.00
2022-12-01T03:39:37.935Z,100.00
2022-12-01T03:42:27.891Z,100.00
2022-12-01T03:44:58.947Z,100.00
2022-12-01T03:47:29.998Z,100.00
2022-12-01T03:49:57.066Z,100.00
2022-12-01T03:52:32.376Z,100.00
2022-12-01T03:55:12.901Z,100.00
2022-12-01T03:57:55.536Z,100.00
2022-12-01T04:00:23.434Z,100.00
2022-12-01T04:02:56.294Z,100.00
2022-12-01T04:05:25.470Z,99.91
2022-12-01T04:07:52.875Z,100.00
2022-12-01T04:10:19.280Z,99.85
2022-12-01T04:12:45.740Z,99.69
2022-12-01T04:15:13.662Z,100.00
2022-12-01T04:17:41.505Z,100.00
2022-12-01T04:20:08.242Z,100.00
2022-12-01T04:22:34.795Z,100.00
2022-12-01T04:25:01.116Z,100.00
2022-12-01T04:27:27.499Z,100.00
2022-12-01T04:29:53.818Z,100.00
2022-12-01T04:32:20.198Z,99.98
2022-12-01T04:34:46.529Z,100.00
2022-12-01T04:37:12.866Z,100.00
2022-12-01T04:39:39.391Z,99.64
2022-12-01T04:42:05.750Z,99.64
2022-12-01T04:44:34.982Z,99.77
2022-12-01T04:47:02.679Z,99.69
2022-12-01T04:49:29.085Z,98.99
2022-12-01T04:51:55.456Z,99.11
2022-12-01T04:54:22.126Z,99.29
2022-12-01T04:56:48.478Z,100.00
2022-12-01T04:59:14.856Z,99.63
2022-12-01T05:01:41.303Z,99.31
2022-12-01T05:04:07.684Z,99.20
2022-12-01T05:06:34.012Z,99.69
2022-12-01T05:09:01.673Z,99.70
2022-12-01T05:11:29.839Z,98.64
2022-12-01T05:13:56.198Z,98.41
2022-12-01T05:16:32.578Z,98.91
2022-12-01T05:19:01.796Z,98.61
2022-12-01T05:21:28.114Z,98.73
2022-12-01T05:23:54.424Z,97.71
2022-12-01T05:26:20.767Z,97.56
2022-12-01T05:28:47.086Z,97.15
2022-12-01T05:31:13.428Z,97.07
2022-12-01T05:33:39.781Z,96.59
2022-12-01T05:36:06.369Z,96.68
2022-12-01T05:38:32.666Z,97.02
2022-12-01T05:40:58.992Z,97.41
2022-12-01T05:43:29.049Z,97.26
2022-12-01T05:45:57.011Z,96.09
2022-12-01T05:48:23.998Z,95.62
2022-12-01T05:50:50.342Z,95.42
2022-12-01T05:53:17.403Z,95.63
2022-12-01T05:55:44.089Z,95.60
2022-12-01T05:58:10.955Z,96.04
2022-12-01T06:00:45.429Z,96.14
2022-12-01T06:03:12.612Z,96.42
2022-12-01T06:05:39.084Z,97.20
2022-12-01T06:08:05.558Z,97.39
2022-12-01T06:10:31.945Z,97.40
2022-12-01T06:12:58.272Z,95.87
2022-12-01T06:15:24.622Z,96.92
2022-12-01T06:17:50.939Z,96.63
2022-12-01T06:20:17.506Z,95.98
2022-12-01T06:22:43.853Z,95.32
2022-12-01T06:25:10.853Z,95.99
2022-12-01T06:27:37.426Z,94.46
2022-12-01T06:30:04.661Z,94.39
2022-12-01T06:32:30.964Z,95.17
2022-12-01T06:34:57.272Z,95.82
2022-12-01T06:37:23.625Z,94.75
2022-12-01T06:39:50.134Z,94.00
2022-12-01T06:42:16.657Z,95.17
2022-12-01T06:44:42.984Z,95.65
2022-12-01T06:47:09.307Z,95.98
2022-12-01T06:49:35.782Z,95.68
2022-12-01T06:52:02.126Z,95.99
2022-12-01T06:54:28.534Z,95.78
2022-12-01T06:56:54.893Z,95.64
2022-12-01T06:59:21.522Z,95.47
2022-12-01T07:01:48.408Z,94.59
2022-12-01T07:04:14.794Z,94.59
2022-12-01T07:06:41.112Z,96.09
2022-12-01T07:09:07.425Z,96.61
2022-12-01T07:11:33.763Z,96.66
2022-12-01T07:14:00.074Z,95.33
2022-12-01T07:16:26.476Z,94.64
2022-12-01T07:18:52.808Z,94.36
2022-12-01T07:21:19.145Z,95.71
2022-12-01T07:23:45.629Z,96.53
2022-12-01T07:26:14.300Z,96.04
2022-12-01T07:28:41.207Z,96.26
2022-12-01T07:31:13.815Z,96.12
2022-12-01T07:33:40.505Z,95.80
2022-12-01T07:36:07.770Z,95.96
2022-12-01T07:38:35.199Z,95.98
2022-12-01T07:41:06.815Z,94.73
2022-12-01T07:43:34.190Z,95.56
2022-12-01T07:46:05.590Z,95.21
2022-12-01T07:48:32.038Z,94.58
2022-12-01T07:50:58.356Z,95.25
2022-12-01T07:53:24.746Z,94.34
2022-12-01T07:55:51.052Z,94.17
2022-12-01T07:58:17.556Z,93.88
2022-12-01T08:00:43.919Z,93.53
2022-12-01T08:03:10.345Z,94.37
2022-12-01T08:05:36.781Z,93.80
2022-12-01T08:08:03.327Z,92.26
2022-12-01T08:10:29.691Z,92.38
2022-12-01T08:12:56.048Z,92.84
2022-12-01T08:15:22.631Z,93.36
2022-12-01T08:17:49.034Z,94.21
2022-12-01T08:20:19.551Z,95.29
2022-12-01T08:22:48.768Z,96.06
2022-12-01T08:25:15.167Z,95.74
2022-12-01T08:27:41.498Z,95.25
2022-12-01T08:30:08.576Z,94.07
2022-12-01T08:32:34.975Z,94.78
2022-12-01T08:35:01.278Z,95.47
2022-12-01T08:37:27.590Z,95.96
2022-12-01T08:39:53.902Z,96.03
2022-12-01T08:42:20.224Z,94.90
2022-12-01T08:44:46.603Z,93.90
2022-12-01T08:47:17.306Z,93.39
2022-12-01T08:49:45.117Z,94.37
2022-12-01T08:52:11.425Z,94.64
2022-12-01T08:54:37.805Z,94.62
2022-12-01T08:57:04.300Z,93.74
2022-12-01T08:59:30.597Z,93.81
2022-12-01T09:01:56.974Z,92.98
2022-12-01T09:04:25.155Z,94.08
2022-12-01T09:06:53.533Z,94.45
2022-12-01T09:09:26.248Z,94.93
2022-12-01T09:11:52.691Z,94.91
2022-12-01T09:14:20.619Z,94.30
2022-12-01T09:16:48.340Z,92.59
2022-12-01T09:19:19.197Z,91.16
2022-12-01T09:21:49.962Z,90.46
2022-12-01T09:24:16.378Z,89.83
2022-12-01T09:26:42.766Z,90.46
2022-12-01T09:29:12.281Z,90.85
2022-12-01T09:31:38.824Z,91.50
2022-12-01T09:34:08.588Z,89.78
2022-12-01T09:36:36.342Z,87.27
2022-12-01T09:39:03.044Z,86.46
2022-12-01T09:41:41.847Z,84.84
2022-12-01T09:44:11.138Z,86.76
2022-12-01T09:46:52.803Z,84.92
2022-12-01T09:49:24.161Z,86.14
2022-12-01T09:51:52.586Z,86.06
2022-12-01T09:54:19.010Z,84.30
2022-12-01T09:56:51.045Z,84.28
2022-12-01T09:59:21.701Z,84.10
2022-12-01T10:01:52.536Z,84.20
2022-12-01T10:04:41.476Z,83.37
2022-12-01T10:07:25.493Z,83.71
2022-12-01T10:09:54.935Z,84.39
2022-12-01T10:12:23.745Z,85.53
2022-12-01T10:14:50.743Z,85.76
2022-12-01T10:17:28.032Z,84.26
2022-12-01T10:20:02.907Z,83.87
2022-12-01T10:22:31.912Z,85.33
2022-12-01T10:25:11.292Z,85.33
2022-12-01T10:27:47.772Z,84.38
2022-12-01T10:30:16.585Z,84.38
2022-12-01T10:32:59.059Z,83.35
2022-12-01T10:35:27.884Z,84.83
2022-12-01T10:37:58.853Z,84.39
2022-12-01T10:40:27.033Z,85.06
2022-12-01T10:42:53.972Z,84.71
2022-12-01T10:45:24.428Z,84.39
2022-12-01T10:48:16.811Z,83.42
2022-12-01T10:50:46.185Z,82.49
2022-12-01T10:53:34.765Z,83.09
2022-12-01T10:56:09.922Z,81.95
2022-12-01T10:58:47.208Z,81.79
2022-12-01T11:01:33.466Z,82.85
2022-12-01T11:04:07.651Z,83.89
2022-12-01T11:06:34.633Z,84.43
2022-12-01T11:09:07.012Z,83.57
2022-12-01T11:11:39.349Z,84.39
2022-12-01T11:14:16.927Z,83.28
2022-12-01T11:16:45.777Z,83.07
2022-12-01T11:19:31.067Z,82.93
2022-12-01T11:21:58.237Z,83.79
2022-12-01T11:24:27.321Z,82.87
2022-12-01T11:26:54.117Z,82.53
2022-12-01T11:29:34.434Z,83.81
2022-12-01T11:32:02.346Z,83.14
2022-12-01T11:34:33.704Z,83.09
2022-12-01T11:37:07.009Z,84.45
2022-12-01T11:39:37.387Z,83.80
2022-12-01T11:42:28.341Z,84.00
2022-12-01T11:45:03.154Z,83.24
2022-12-01T11:47:29.375Z,82.22
2022-12-01T11:50:01.329Z,81.95
2022-12-01T11:52:34.631Z,82.63
2022-12-01T11:55:13.018Z,83.25
2022-12-01T11:57:43.517Z,82.27
2022-12-01T12:00:21.456Z,82.05
2022-12-01T12:03:16.118Z,81.29
2022-12-01T12:05:52.792Z,81.15
2022-12-01T12:08:34.495Z,80.28
2022-12-01T12:11:16.693Z,80.75
2022-12-01T12:13:42.947Z,80.84
2022-12-01T12:16:15.208Z,79.34
2022-12-01T12:19:06.582Z,79.50
2022-12-01T12:21:51.255Z,79.08
2022-12-01T12:24:32.103Z,78.52
2022-12-01T12:27:10.675Z,80.28
2022-12-01T12:29:54.277Z,80.99
2022-12-01T12:33:00.717Z,79.29
2022-12-01T12:35:44.463Z,79.46
2022-12-01T12:38:46.403Z,78.11
2022-12-01T12:41:31.375Z,79.69
2022-12-01T12:44:35.377Z,80.56
2022-12-01T12:47:24.962Z,81.38
2022-12-01T12:50:00.374Z,80.86
2022-12-01T12:52:33.469Z,81.14
2022-12-01T12:55:12.074Z,81.45
2022-12-01T12:57:45.221Z,80.37
2022-12-01T13:00:26.820Z,80.63
2022-12-01T13:03:14.746Z,79.53
2022-12-01T13:05:45.187Z,78.88
2022-12-01T13:08:17.402Z,80.22
2022-12-01T13:11:22.860Z,79.82
2022-12-01T13:14:20.338Z,79.93
2022-12-01T13:16:50.264Z,78.66
2022-12-01T13:19:18.621Z,78.22
2022-12-01T13:21:48.186Z,78.95
2022-12-01T13:24:23.027Z,79.17
2022-12-01T13:26:56.956Z,80.24
2022-12-01T13:29:24.838Z,80.12
2022-12-01T13:31:53.068Z,79.96
2022-12-01T13:34:25.139Z,79.17
2022-12-01T13:36:54.060Z,79.61
2022-12-01T13:39:26.299Z,81.58
2022-12-01T13:42:02.261Z,84.33
2022-12-01T13:44:33.907Z,85.27
2022-12-01T13:47:12.218Z,85.05
2022-12-01T13:49:40.582Z,86.06
2022-12-01T13:52:22.140Z,86.42
2022-12-01T13:55:06.855Z,86.33
2022-12-01T13:57:35.808Z,85.32
2022-12-01T14:00:05.702Z,86.52
2022-12-01T14:02:35.393Z,86.82
2022-12-01T14:05:22.022Z,85.65
2022-12-01T14:07:53.541Z,86.58
2022-12-01T14:10:25.786Z,87.53
2022-12-01T14:12:56.367Z,86.75
2022-12-01T14:15:30.404Z,84.67
2022-12-01T14:18:22.002Z,82.64
2022-12-01T14:20:49.111Z,81.68
2022-12-01T14:23:18.375Z,81.54
2022-12-01T14:25:59.215Z,80.82
2022-12-01T14:28:54.918Z,82.52
2022-12-01T14:31:25.486Z,85.34
2022-12-01T14:33:58.541Z,85.08
2022-12-01T14:36:34.030Z,87.17
2022-12-01T14:39:06.107Z,88.34
2022-12-01T14:41:48.069Z,88.21
2022-12-01T14:44:21.037Z,88.54
2022-12-01T14:46:54.187Z,88.39
2022-12-01T14:49:25.542Z,87.85
2022-12-01T14:52:00.483Z,88.70
2022-12-01T14:54:32.445Z,88.85
2022-12-01T14:57:07.371Z,89.03
2022-12-01T14:59:35.539Z,89.46
2022-12-01T15:02:07.723Z,89.70
2022-12-01T15:04:55.066Z,89.76
2022-12-01T15:07:22.805Z,89.82
2022-12-01T15:09:59.522Z,89.48
2022-12-01T15:12:27.589Z,90.25
2022-12-01T15:14:54.079Z,90.53
2022-12-01T15:17:32.770Z,90.68
2022-12-01T15:19:59.319Z,90.87
2022-12-01T15:22:30.663Z,90.42
2022-12-01T15:25:29.613Z,89.87
2022-12-01T15:28:28.850Z,89.89
2022-12-01T15:30:55.736Z,90.62
2022-12-01T15:33:28.317Z,90.38
2022-12-01T15:35:56.266Z,90.44
2022-12-01T15:38:26.856Z,90.30
2022-12-01T15:43:41.745Z,91.26
2022-12-01T15:46:15.971Z,90.58
2022-12-01T15:48:42.725Z,90.43
2022-12-01T15:51:24.421Z,89.63
2022-12-01T15:53:53.380Z,89.35
2022-12-01T15:56:29.417Z,89.63
2022-12-01T15:59:09.413Z,90.49
2022-12-01T16:01:36.672Z,89.68
2022-12-01T16:04:07.231Z,90.41
2022-12-01T16:06:36.638Z,89.92
2022-12-01T16:09:18.549Z,90.31
2022-12-01T16:12:18.548Z,90.83
2022-12-01T16:14:55.767Z,90.19
2022-12-01T16:17:23.747Z,89.76
2022-12-01T16:20:18.960Z,91.25
2022-12-01T16:22:48.216Z,90.23
2022-12-01T16:25:34.970Z,89.90
2022-12-01T16:28:02.666Z,91.07
2022-12-01T16:30:36.052Z,91.28
2022-12-01T16:33:05.212Z,91.99
2022-12-01T16:35:33.338Z,92.08
2022-12-01T16:38:13.035Z,91.64
2022-12-01T16:40:41.658Z,91.57
2022-12-01T16:43:13.703Z,92.55
2022-12-01T16:45:40.108Z,92.67
2022-12-01T16:48:09.444Z,92.84
2022-12-01T16:50:36.349Z,91.61
2022-12-01T16:53:02.733Z,91.50
2022-12-01T16:55:50.990Z,92.28
2022-12-01T16:58:17.838Z,92.05
2022-12-01T17:00:44.515Z,92.79
2022-12-01T17:03:11.847Z,92.60
2022-12-01T17:05:38.321Z,93.12
2022-12-01T17:08:05.599Z,92.60
2022-12-01T17:10:32.070Z,92.52
2022-12-01T17:12:58.367Z,92.58
2022-12-01T17:15:24.739Z,92.61
2022-12-01T17:17:51.024Z,93.25
2022-12-01T17:20:17.605Z,92.98
2022-12-01T17:22:43.948Z,93.35
2022-12-01T17:25:10.296Z,92.14
2022-12-01T17:27:38.050Z,92.54
2022-12-01T17:30:05.941Z,91.83
2022-12-01T17:32:32.315Z,91.75
2022-12-01T17:34:58.665Z,92.06
2022-12-01T17:37:25.008Z,93.26
2022-12-01T17:39:51.311Z,93.03
2022-12-01T17:42:17.632Z,92.84
2022-12-01T17:44:43.997Z,92.26
2022-12-01T17:47:10.476Z,91.68
2022-12-01T17:49:37.371Z,91.85
2022-12-01T17:52:04.623Z,92.03
2022-12-01T17:54:31.246Z,91.83
2022-12-01T17:56:57.619Z,93.39
2022-12-01T17:59:24.006Z,93.95
2022-12-01T18:01:50.423Z,94.01
2022-12-01T18:04:16.768Z,93.66
2022-12-01T18:06:43.051Z,94.36
2022-12-01T18:18:50.533Z,94.18
2022-12-01T18:21:19.181Z,94.54
2022-12-01T18:23:50.212Z,94.00
2022-12-01T18:26:17.245Z,93.65
2022-12-01T18:28:44.323Z,92.66
2022-12-01T18:31:14.364Z,92.18
2022-12-01T18:33:42.107Z,92.66
2022-12-01T18:36:17.720Z,93.11
2022-12-01T18:38:44.588Z,92.53
2022-12-01T18:41:10.976Z,94.06
2022-12-01T18:43:37.273Z,93.59
2022-12-01T18:46:05.702Z,94.06
2022-12-01T18:48:33.157Z,93.88
2022-12-01T18:51:07.189Z,93.07
2022-12-01T18:53:34.470Z,93.97
2022-12-01T18:56:05.660Z,94.53
2022-12-01T18:58:32.566Z,94.80
2022-12-01T19:00:59.972Z,93.82
2022-12-01T19:03:29.745Z,94.94
2022-12-01T19:05:56.078Z,95.25
2022-12-01T19:08:22.556Z,94.96
2022-12-01T19:11:02.803Z,94.65
2022-12-01T19:13:32.924Z,95.52
2022-12-01T19:16:04.496Z,95.78
2022-12-01T19:18:30.836Z,94.66
2022-12-01T19:21:01.133Z,93.61
2022-12-01T19:23:27.495Z,93.27
2022-12-01T19:25:53.807Z,92.94
2022-12-01T19:28:20.197Z,93.12
2022-12-01T19:30:48.306Z,93.12
2022-12-01T19:33:17.471Z,93.98
2022-12-01T19:35:43.775Z,93.77
2022-12-01T19:38:10.116Z,93.55
2022-12-01T19:40:37.552Z,94.15
2022-12-01T19:43:04.028Z,94.01
2022-12-01T19:45:30.382Z,93.94
2022-12-01T19:47:57.572Z,93.98
2022-12-01T19:50:23.911Z,94.06
2022-12-01T19:52:50.220Z,94.05
2022-12-01T19:55:16.562Z,94.18
2022-12-01T19:57:42.911Z,94.26
2022-12-01T20:00:10.039Z,94.66
2022-12-01T20:02:36.420Z,94.55
2022-12-01T20:05:02.793Z,94.24
2022-12-01T20:07:30.055Z,94.18
2022-12-01T20:09:56.403Z,94.55
2022-12-01T20:12:22.745Z,94.42
2022-12-01T20:14:49.445Z,95.50
2022-12-01T20:17:16.203Z,95.59
2022-12-01T20:19:42.578Z,95.62
2022-12-01T20:22:08.922Z,95.81
2022-12-01T20:24:35.370Z,95.70
2022-12-01T20:27:01.700Z,95.74
2022-12-01T20:29:29.764Z,95.78
2022-12-01T20:31:58.084Z,95.56
2022-12-01T20:34:27.754Z,94.83
2022-12-01T20:36:54.702Z,95.58
2022-12-01T20:39:21.228Z,95.20
2022-12-01T20:41:47.706Z,95.80
2022-12-01T20:44:16.144Z,95.23
2022-12-01T20:46:43.150Z,96.58
2022-12-01T20:49:09.454Z,96.35
2022-12-01T20:51:36.020Z,96.74
2022-12-01T20:54:27.952Z,95.90
2022-12-01T20:56:50.663Z,96.39
2022-12-01T20:59:17.016Z,96.69
2022-12-01T21:01:43.350Z,96.86
2022-12-01T21:04:09.651Z,97.07
2022-12-01T21:06:36.001Z,97.04
2022-12-01T21:09:04.058Z,97.59
2022-12-01T21:11:45.141Z,98.42
2022-12-01T21:14:36.441Z,97.89
2022-12-01T21:17:15.821Z,97.85
2022-12-01T21:19:54.031Z,97.93
2022-12-01T21:22:20.345Z,97.68
2022-12-01T21:24:50.321Z,97.97
2022-12-01T21:27:17.691Z,98.91
2022-12-01T21:29:46.633Z,98.71
2022-12-01T21:32:18.786Z,98.26
2022-12-01T21:34:48.994Z,98.08
2022-12-01T21:37:23.538Z,98.79
2022-12-01T21:39:51.886Z,98.80
2022-12-01T21:42:21.135Z,99.38
2022-12-01T21:44:48.241Z,99.52
2022-12-01T21:47:21.019Z,99.69
2022-12-01T21:49:50.813Z,99.26
2022-12-01T21:52:22.729Z,98.92
2022-12-01T21:54:49.890Z,97.89
2022-12-01T21:57:52.600Z,98.46
2022-12-01T22:00:36.419Z,97.31
2022-12-01T22:03:08.683Z,98.08
2022-12-01T22:05:39.022Z,98.61
2022-12-01T22:08:22.025Z,98.97
2022-12-01T22:10:55.777Z,99.35
2022-12-01T22:13:25.868Z,99.21
2022-12-01T22:15:53.671Z,98.60
2022-12-01T22:18:27.181Z,98.41
2022-12-01T22:20:54.007Z,98.18
2022-12-01T22:23:31.979Z,98.05
2022-12-01T22:25:58.311Z,98.30
2022-12-01T22:28:24.630Z,98.17
2022-12-01T22:30:52.186Z,98.05
2022-12-01T22:33:23.921Z,98.27
2022-12-01T22:35:52.472Z,97.81
2022-12-01T22:38:35.191Z,97.80
2022-12-01T22:41:20.744Z,97.92
2022-12-01T22:43:50.776Z,97.41
2022-12-01T22:46:34.663Z,97.12
2022-12-01T22:49:10.141Z,96.84
2022-12-01T22:51:50.744Z,97.02
2022-12-01T22:54:17.027Z,96.59
2022-12-01T22:56:53.731Z,95.86
2022-12-01T22:59:29.226Z,96.15
2022-12-01T23:02:00.864Z,97.05
2022-12-01T23:04:39.717Z,97.04
2022-12-01T23:07:29.387Z,96.42
2022-12-01T23:10:02.206Z,97.03
2022-12-01T23:12:33.494Z,97.43
2022-12-01T23:15:14.787Z,97.36
2022-12-01T23:17:41.232Z,97.82
2022-12-01T23:20:10.626Z,97.18
2022-12-01T23:22:38.426Z,97.03
2022-12-01T23:25:18.968Z,97.47
2022-12-01T23:27:48.194Z,97.06
2022-12-01T23:30:16.229Z,97.82
2022-12-01T23:32:43.689Z,97.43
2022-12-01T23:35:18.901Z,97.75
2022-12-01T23:37:47.843Z,98.52
2022-12-01T23:40:30.437Z,98.04
2022-12-01T23:43:14.598Z,97.79
2022-12-01T23:45:41.057Z,96.95
2022-12-01T23:48:21.923Z,97.07
2022-12-01T23:50:53.157Z,97.62
2022-12-01T23:53:29.164Z,97.82
2022-12-01T23:55:57.990Z,97.29
2022-12-01T23:58:24.340Z,96.73
